| time (UTC) | temp C | wind direction | speed KPH | gust KPH | rain 1hr cm | rain 24hr cm | rain mn cm | humidity % | barometer mb |
| 20260504220940 | 27 | 150 | 11.3 | 14.5 | 0.00 | 0.00 | 0.00 | 59 | 1014.7 |
| 20260504220436 | 27 | 161 | 8.0 | 14.5 | 0.00 | 0.00 | 0.00 | 58 | 1014.9 |
| 20260504215933 | 27 | 149 | 3.2 | 8.0 | 0.00 | 0.00 | 0.00 | 58 | 1014.5 |
| 20260504215430 | 28 | 93 | 8.0 | 11.3 | 0.00 | 0.00 | 0.00 | 56 | 1014.7 |
| 20260504214926 | 27 | 79 | 6.4 | 9.7 | 0.00 | 0.00 | 0.00 | 57 | 1014.6 |
| 20260504214423 | 27 | 135 | 1.6 | 1.6 | 0.00 | 0.00 | 0.00 | 57 | 1014.4 |
| 20260504213920 | 27 | 338 | 0.0 | 1.6 | 0.00 | 0.00 | 0.00 | 57 | 1014.6 |
| 20260504213415 | 27 | 64 | 6.4 | 9.7 | 0.00 | 0.00 | 0.00 | 56 | 1014.6 |
| 20260504212914 | 27 | 288 | 1.6 | 1.6 | 0.00 | 0.00 | 0.00 | 56 | 1014.6 |
| 20260504212409 | 27 | 236 | 1.6 | 1.6 | 0.00 | 0.00 | 0.00 | 56 | 1014.6 |
| 20260504211908 | 28 | 151 | 4.8 | 8.0 | 0.00 | 0.00 | 0.00 | 53 | 1014.8 |
| 20260504211403 | 28 | 293 | 1.6 | 1.6 | 0.00 | 0.00 | 0.00 | 53 | 1014.8 |
| 20260504210900 | 28 | 94 | 4.8 | 11.3 | 0.00 | 0.00 | 0.00 | 54 | 1014.8 |
| 20260504210357 | 28 | 160 | 6.4 | 11.3 | 0.00 | 0.00 | 0.00 | 53 | 1014.7 |
| 20260504205855 | 27 | 323 | 8.0 | 9.7 | 0.00 | 0.00 | 0.00 | 55 | 1014.9 |
| 20260504205352 | 27 | 86 | 11.3 | 14.5 | 0.00 | 0.00 | 0.00 | 54 | 1014.6 |
| 20260504204850 | 28 | 78 | 14.5 | 20.9 | 0.00 | 0.00 | 0.00 | 53 | 1014.6 |
| 20260504204348 | 28 | 325 | 1.6 | 3.2 | 0.00 | 0.00 | 0.00 | 51 | 1014.7 |
| 20260504203848 | 28 | 65 | 6.4 | 11.3 | 0.00 | 0.00 | 0.00 | 49 | 1014.8 |
| 20260504203344 | 28 | 62 | 4.8 | 4.8 | 0.00 | 0.00 | 0.00 | 52 | 1014.7 |
| 20260504202840 | 28 | 41 | 6.4 | 8.0 | 0.00 | 0.00 | 0.00 | 52 | 1014.9 |
| 20260504202337 | 28 | 288 | 1.6 | 1.6 | 0.00 | 0.00 | 0.00 | 49 | 1015.1 |
| 20260504201833 | 28 | 210 | 4.8 | 4.8 | 0.00 | 0.00 | 0.00 | 49 | 1014.9 |
| 20260504201331 | 27 | 98 | 8.0 | 9.7 | 0.00 | 0.00 | 0.00 | 52 | 1015.0 |
| 20260504200828 | 28 | 64 | 4.8 | 4.8 | 0.00 | 0.00 | 0.00 | 51 | 1015.0 |
| 20260504200325 | 28 | 102 | 12.9 | 16.1 | 0.00 | 0.00 | 0.00 | 50 | 1015.0 |
| 20260504195821 | 28 | 230 | 1.6 | 3.2 | 0.00 | 0.00 | 0.00 | 51 | 1015.1 |
| 20260504195317 | 28 | 80 | 4.8 | 8.0 | 0.00 | 0.00 | 0.00 | 50 | 1015.2 |
| 20260504194814 | 27 | 69 | 3.2 | 4.8 | 0.00 | 0.00 | 0.00 | 52 | 1015.3 |
| 20260504194310 | 27 | 75 | 4.8 | 8.0 | 0.00 | 0.00 | 0.00 | 51 | 1015.4 |
| 20260504193806 | 28 | 279 | 6.4 | 11.3 | 0.00 | 0.00 | 0.00 | 50 | 1015.5 |
| 20260504193304 | 28 | 100 | 12.9 | 16.1 | 0.00 | 0.00 | 0.00 | 50 | 1015.5 |
| 20260504192802 | 28 | 254 | 1.6 | 3.2 | 0.00 | 0.00 | 0.00 | 50 | 1015.5 |
| 20260504192300 | 28 | 44 | 6.4 | 9.7 | 0.00 | 0.00 | 0.00 | 49 | 1015.8 |
| 20260504191758 | 28 | 328 | 4.8 | 4.8 | 0.00 | 0.00 | 0.00 | 50 | 1015.6 |
| 20260504191255 | 28 | 194 | 4.8 | 8.0 | 0.00 | 0.00 | 0.00 | 50 | 1015.7 |
| 20260504190750 | 27 | 33 | 4.8 | 4.8 | 0.00 | 0.00 | 0.00 | 51 | 1015.7 |
| 20260504190247 | 27 | 165 | 6.4 | 8.0 | 0.00 | 0.00 | 0.00 | 52 | 1016.0 |
| 20260504185743 | 28 | 101 | 8.0 | 9.7 | 0.00 | 0.00 | 0.00 | 50 | 1016.0 |
| 20260504185240 | 27 | 289 | 1.6 | 1.6 | 0.00 | 0.00 | 0.00 | 51 | 1016.0 |
| 20260504184737 | 27 | 97 | 14.5 | 17.7 | 0.00 | 0.00 | 0.00 | 50 | 1016.1 |
| 20260504184232 | 27 | 88 | 11.3 | 14.5 | 0.00 | 0.00 | 0.00 | 52 | 1016.3 |
| 20260504183728 | 27 | 105 | 8.0 | 9.7 | 0.00 | 0.00 | 0.00 | 51 | 1016.4 |
| 20260504183226 | 27 | 49 | 11.3 | 11.3 | 0.00 | 0.00 | 0.00 | 49 | 1016.2 |
| 20260504182724 | 27 | 81 | 8.0 | 9.7 | 0.00 | 0.00 | 0.00 | 50 | 1016.5 |
| 20260504182221 | 28 | 71 | 9.7 | 16.1 | 0.00 | 0.00 | 0.00 | 50 | 1016.5 |
| 20260504181718 | 28 | 105 | 6.4 | 8.0 | 0.00 | 0.00 | 0.00 | 49 | 1016.8 |
| 20260504181216 | 27 | 55 | 6.4 | 8.0 | 0.00 | 0.00 | 0.00 | 49 | 1016.9 |
| 20260504180715 | 27 | 53 | 6.4 | 8.0 | 0.00 | 0.00 | 0.00 | 50 | 1016.9 |
| 20260504180213 | 27 | 120 | 4.8 | 8.0 | 0.00 | 0.00 | 0.00 | 51 | 1016.9 |
| 20260504175710 | 27 | 90 | 9.7 | 12.9 | 0.00 | 0.00 | 0.00 | 51 | 1016.9 |
| 20260504175207 | 27 | 333 | 1.6 | 1.6 | 0.00 | 0.00 | 0.00 | 51 | 1017.0 |
| 20260504174705 | 27 | 146 | 6.4 | 9.7 | 0.00 | 0.00 | 0.00 | 52 | 1017.0 |
| 20260504174202 | 27 | 109 | 4.8 | 4.8 | 0.00 | 0.00 | 0.00 | 52 | 1017.1 |
| 20260504173658 | 27 | 77 | 4.8 | 12.9 | 0.00 | 0.00 | 0.00 | 53 | 1017.4 |
| 20260504173155 | 27 | 64 | 3.2 | 4.8 | 0.00 | 0.00 | 0.00 | 53 | 1017.3 |
| 20260504172652 | 27 | 45 | 1.6 | 3.2 | 0.00 | 0.00 | 0.00 | 54 | 1017.2 |
| 20260504172148 | 27 | 358 | 1.6 | 3.2 | 0.00 | 0.00 | 0.00 | 54 | 1017.4 |
| 20260504171645 | 27 | 312 | 4.8 | 8.0 | 0.00 | 0.00 | 0.00 | 52 | 1017.0 |
| 20260504171142 | 27 | 49 | 12.9 | 16.1 | 0.00 | 0.00 | 0.00 | 52 | 1017.2 |
| 20260504170638 | 28 | 64 | 6.4 | 8.0 | 0.00 | 0.00 | 0.00 | 52 | 1017.4 |
| 20260504170136 | 27 | 62 | 6.4 | 9.7 | 0.00 | 0.00 | 0.00 | 53 | 1017.2 |
| 20260504151016 | 25 | 292 | 3.2 | 4.8 | 0.00 | 0.00 | 0.00 | 57 | 1018.3 |
| 20260504150513 | 25 | 334 | 6.4 | 9.7 | 0.00 | 0.00 | 0.00 | 57 | 1018.3 |
| 20260504140939 | 23 | 0 | 8.0 | 11.3 | 0.00 | 0.00 | 0.00 | 69 | 1018.2 |
| 20260504140435 | 23 | 27 | 3.2 | 3.2 | 0.00 | 0.00 | 0.00 | 69 | 1017.9 |
| 20260504130400 | 21 | 282 | 3.2 | 3.2 | 0.00 | 0.00 | 0.00 | 76 | 1018.0 |
| 20260504110247 | 16 | 270 | 0.0 | 0.0 | 0.00 | 0.00 | 0.00 | 91 | 1017.1 |
| 20260504100211 | 16 | 56 | 0.0 | 1.6 | 0.00 | 0.00 | 0.00 | 91 | 1016.8 |
| 20260504090134 | 17 | 252 | 0.0 | 1.6 | 0.00 | 0.00 | 0.00 | 90 | 1016.6 |
| 20260504081604 | 17 | 275 | 0.0 | 0.0 | 0.00 | 0.00 | 0.00 | 88 | 1016.6 |
| 20260504081100 | 17 | 270 | 0.0 | 0.0 | 0.00 | 0.00 | 0.00 | 88 | 1016.7 |
| 20260504080557 | 18 | 235 | 1.6 | 1.6 | 0.00 | 0.00 | 0.00 | 88 | 1016.7 |
| 20260504050404 | 19 | 74 | 3.2 | 3.2 | 0.00 | 0.00 | 0.00 | 85 | 1017.3 |
| 20260504045901 | 19 | 312 | 1.6 | 1.6 | 0.00 | 0.00 | 0.00 | 85 | 1017.4 |
| 20260504045356 | 20 | 278 | 1.6 | 1.6 | 0.00 | 0.00 | 0.00 | 85 | 1017.7 |
| 20260504044853 | 20 | 292 | 1.6 | 1.6 | 0.00 | 0.00 | 0.00 | 85 | 1017.9 |
| 20260504044350 | 20 | 263 | 0.0 | 0.0 | 0.00 | 0.00 | 0.00 | 85 | 1018.1 |
| 20260504043848 | 20 | 274 | 0.0 | 0.0 | 0.00 | 0.00 | 0.00 | 84 | 1018.2 |
| 20260504043344 | 20 | 282 | 0.0 | 0.0 | 0.00 | 0.00 | 0.00 | 84 | 1018.4 |
| 20260504042842 | 20 | 272 | 0.0 | 0.0 | 0.00 | 0.00 | 0.00 | 84 | 1018.0 |
| 20260504042338 | 20 | 273 | 0.0 | 0.0 | 0.00 | 0.00 | 0.00 | 83 | 1018.2 |
| 20260504041834 | 20 | 273 | 0.0 | 0.0 | 0.00 | 0.00 | 0.00 | 83 | 1018.2 |
| 20260504041331 | 20 | 293 | 1.6 | 1.6 | 0.00 | 0.00 | 0.00 | 83 | 1018.3 |
| 20260504040827 | 20 | 268 | 0.0 | 0.0 | 0.00 | 0.00 | 0.00 | 82 | 1018.6 |
| 20260504040325 | 20 | 270 | 0.0 | 0.0 | 0.00 | 0.00 | 0.00 | 82 | 1018.2 |
| 20260504035820 | 20 | 274 | 0.0 | 0.0 | 0.00 | 0.20 | 0.20 | 81 | 1018.5 |
| 20260504035318 | 20 | 280 | 0.0 | 0.0 | 0.00 | 0.20 | 0.20 | 81 | 1018.4 |
| 20260504034815 | 20 | 293 | 1.6 | 3.2 | 0.00 | 0.20 | 0.20 | 81 | 1018.4 |
| 20260504034313 | 21 | 69 | 1.6 | 3.2 | 0.00 | 0.20 | 0.20 | 81 | 1018.5 |
| 20260504033810 | 21 | 345 | 1.6 | 1.6 | 0.00 | 0.20 | 0.20 | 80 | 1018.3 |
| 20260504033307 | 21 | 54 | 4.8 | 8.0 | 0.00 | 0.20 | 0.20 | 81 | 1018.2 |
| 20260504032803 | 21 | 52 | 8.0 | 9.7 | 0.00 | 0.20 | 0.20 | 80 | 1018.5 |
| 20260504032301 | 21 | 31 | 1.6 | 3.2 | 0.00 | 0.20 | 0.20 | 80 | 1018.1 |
| 20260504031757 | 21 | 276 | 1.6 | 1.6 | 0.00 | 0.20 | 0.20 | 80 | 1018.1 |
| 20260504031255 | 21 | 87 | 6.4 | 9.7 | 0.00 | 0.20 | 0.20 | 80 | 1018.1 |
| 20260504030751 | 21 | 142 | 3.2 | 4.8 | 0.00 | 0.20 | 0.20 | 80 | 1018.0 |
| 20260504030248 | 21 | 282 | 1.6 | 1.6 | 0.00 | 0.20 | 0.20 | 80 | 1018.0 |
| 20260504025745 | 21 | 112 | 8.0 | 9.7 | 0.00 | 0.20 | 0.20 | 80 | 1018.1 |
| 20260504025242 | 21 | 63 | 4.8 | 4.8 | 0.00 | 0.20 | 0.20 | 80 | 1018.0 |
| 20260504024738 | 21 | 348 | 1.6 | 3.2 | 0.00 | 0.20 | 0.20 | 80 | 1018.1 |
| 20260504024235 | 21 | 283 | 4.8 | 4.8 | 0.00 | 0.20 | 0.20 | 80 | 1017.9 |
| 20260504023732 | 21 | 91 | 4.8 | 4.8 | 0.00 | 0.20 | 0.20 | 80 | 1018.2 |
| 20260504023228 | 21 | 311 | 0.0 | 1.6 | 0.00 | 0.20 | 0.20 | 79 | 1018.0 |
| 20260504022724 | 21 | 310 | 1.6 | 3.2 | 0.00 | 0.20 | 0.20 | 79 | 1018.1 |
| 20260504022220 | 21 | 305 | 0.0 | 1.6 | 0.00 | 0.20 | 0.20 | 79 | 1017.8 |
| 20260504021712 | 21 | 66 | 4.8 | 8.0 | 0.00 | 0.20 | 0.20 | 79 | 1017.8 |
| 20260504021209 | 21 | 71 | 6.4 | 8.0 | 0.00 | 0.20 | 0.20 | 79 | 1017.9 |
| 20260504020706 | 21 | 53 | 4.8 | 8.0 | 0.00 | 0.20 | 0.20 | 79 | 1017.7 |
| 20260504020202 | 21 | 94 | 6.4 | 8.0 | 0.00 | 0.20 | 0.20 | 79 | 1017.6 |
| 20260504015658 | 21 | 246 | 3.2 | 3.2 | 0.00 | 0.20 | 0.20 | 78 | 1017.5 |
| 20260504015154 | 22 | 342 | 4.8 | 8.0 | 0.00 | 0.20 | 0.20 | 78 | 1017.4 |
| 20260504014650 | 22 | 298 | 1.6 | 1.6 | 0.00 | 0.20 | 0.20 | 78 | 1017.8 |
| 20260504014148 | 22 | 92 | 3.2 | 3.2 | 0.00 | 0.20 | 0.20 | 78 | 1017.6 |
| 20260504013646 | 22 | 184 | 3.2 | 4.8 | 0.00 | 0.20 | 0.20 | 78 | 1017.2 |
| 20260504013142 | 22 | 303 | 1.6 | 3.2 | 0.00 | 0.20 | 0.20 | 78 | 1017.4 |
| 20260504012639 | 22 | 196 | 1.6 | 1.6 | 0.00 | 0.20 | 0.20 | 78 | 1017.3 |
| 20260504012137 | 22 | 85 | 4.8 | 8.0 | 0.00 | 0.20 | 0.20 | 78 | 1017.3 |
| 20260504011633 | 22 | 128 | 4.8 | 4.8 | 0.00 | 0.20 | 0.20 | 77 | 1017.5 |
| 20260504011130 | 22 | 149 | 1.6 | 3.2 | 0.00 | 0.20 | 0.20 | 77 | 1017.4 |
| 20260504010626 | 22 | 98 | 6.4 | 9.7 | 0.00 | 0.20 | 0.20 | 77 | 1017.1 |
| 20260504010122 | 22 | 79 | 8.0 | 12.9 | 0.00 | 0.20 | 0.20 | 77 | 1016.9 |
| 20260504005619 | 22 | 109 | 6.4 | 9.7 | 0.00 | 0.20 | 0.20 | 77 | 1016.8 |
| 20260504005115 | 22 | 74 | 3.2 | 3.2 | 0.00 | 0.20 | 0.20 | 76 | 1016.9 |
| 20260504004614 | 22 | 240 | 1.6 | 1.6 | 0.00 | 0.20 | 0.20 | 76 | 1016.7 |
| 20260504004111 | 22 | 82 | 4.8 | 8.0 | 0.00 | 0.20 | 0.20 | 76 | 1016.8 |
| 20260504003607 | 22 | 346 | 3.2 | 3.2 | 0.00 | 0.20 | 0.20 | 76 | 1016.9 |
| 20260504003103 | 23 | 246 | 4.8 | 4.8 | 0.00 | 0.20 | 0.20 | 75 | 1016.6 |
| 20260504002600 | 23 | 80 | 3.2 | 3.2 | 0.00 | 0.20 | 0.20 | 75 | 1016.3 |
| 20260504002058 | 23 | 70 | 4.8 | 8.0 | 0.00 | 0.20 | 0.20 | 75 | 1016.3 |
| 20260504001555 | 23 | 87 | 4.8 | 8.0 | 0.00 | 0.20 | 0.20 | 74 | 1016.4 |
| 20260504001051 | 23 | 213 | 1.6 | 1.6 | 0.00 | 0.20 | 0.20 | 74 | 1016.4 |
| 20260504000548 | 23 | 73 | 8.0 | 9.7 | 0.00 | 0.20 | 0.20 | 73 | 1016.3 |
| 20260504000046 | 23 | 108 | 6.4 | 9.7 | 0.00 | 0.20 | 0.20 | 72 | 1016.4 |
| 20260503235544 | 23 | 91 | 4.8 | 4.8 | 0.00 | 0.20 | 0.20 | 72 | 1016.4 |
| 20260503235041 | 23 | 144 | 1.6 | 3.2 | 0.00 | 0.20 | 0.20 | 71 | 1016.3 |
| 20260503234538 | 24 | 98 | 4.8 | 9.7 | 0.00 | 0.20 | 0.20 | 70 | 1016.3 |
| 20260503234037 | 24 | 197 | 4.8 | 4.8 | 0.00 | 0.20 | 0.20 | 70 | 1016.3 |
| 20260503233532 | 24 | 107 | 4.8 | 4.8 | 0.00 | 0.20 | 0.20 | 70 | 1016.3 |
| 20260503233028 | 25 | 62 | 3.2 | 3.2 | 0.00 | 0.20 | 0.20 | 69 | 1016.0 |
| 20260503232526 | 25 | 105 | 6.4 | 8.0 | 0.00 | 0.20 | 0.20 | 68 | 1016.1 |
| 20260503232023 | 25 | 145 | 3.2 | 4.8 | 0.00 | 0.20 | 0.20 | 68 | 1016.0 |
| 20260503231521 | 25 | 284 | 1.6 | 1.6 | 0.00 | 0.20 | 0.20 | 68 | 1016.1 |
| 20260503231018 | 25 | 95 | 3.2 | 4.8 | 0.00 | 0.20 | 0.20 | 67 | 1016.0 |
| 20260503230514 | 25 | 192 | 1.6 | 4.8 | 0.00 | 0.20 | 0.20 | 67 | 1015.9 |
| 20260503230012 | 25 | 83 | 6.4 | 8.0 | 0.00 | 0.20 | 0.20 | 66 | 1016.0 |
| 20260503225508 | 25 | 129 | 8.0 | 9.7 | 0.00 | 0.20 | 0.20 | 64 | 1016.0 |
| 20260503225003 | 26 | 125 | 4.8 | 8.0 | 0.00 | 0.20 | 0.20 | 64 | 1016.0 |
| 20260503224501 | 26 | 226 | 3.2 | 4.8 | 0.00 | 0.20 | 0.20 | 63 | 1016.0 |
| 20260503223958 | 26 | 144 | 8.0 | 11.3 | 0.00 | 0.20 | 0.20 | 62 | 1016.0 |
| 20260503223451 | 26 | 64 | 8.0 | 9.7 | 0.00 | 0.20 | 0.20 | 62 | 1015.9 |
| 20260503222946 | 26 | 64 | 4.8 | 4.8 | 0.00 | 0.20 | 0.20 | 62 | 1016.0 |
| 20260503222445 | 26 | 118 | 4.8 | 4.8 | 0.00 | 0.20 | 0.20 | 62 | 1016.0 |
| 20260503221943 | 26 | 342 | 6.4 | 9.7 | 0.00 | 0.20 | 0.20 | 62 | 1016.0 |
| 20260503221441 | 26 | 78 | 8.0 | 9.7 | 0.00 | 0.20 | 0.20 | 62 | 1015.9 |